createdAt,value
2022-11-24T00:03:55.066Z,20.95
2022-11-24T00:08:55.078Z,22.08
2022-11-24T00:13:53.702Z,19.45
2022-11-24T00:18:52.807Z,23.50
2022-11-24T00:23:51.333Z,26.60
2022-11-24T00:28:51.740Z,24.50
2022-11-24T00:33:50.792Z,23.23
2022-11-24T00:38:49.263Z,22.25
2022-11-24T00:43:47.438Z,22.13
2022-11-24T00:48:47.139Z,22.30
2022-11-24T00:53:45.710Z,23.42
2022-11-24T00:58:43.936Z,22.10
2022-11-24T01:03:42.487Z,22.30
2022-11-24T01:08:42.552Z,22.85
2022-11-24T01:13:41.402Z,22.63
2022-11-24T01:18:39.671Z,21.88
2022-11-24T01:23:38.055Z,22.02
2022-11-24T01:28:40.544Z,20.52
2022-11-24T01:33:41.658Z,20.20
2022-11-24T01:38:39.908Z,22.85
2022-11-24T01:43:39.555Z,23.38
2022-11-24T01:48:39.405Z,22.75
2022-11-24T01:53:38.142Z,24.08
2022-11-24T01:58:37.605Z,21.60
2022-11-24T02:03:39.563Z,21.50
2022-11-24T02:08:42.165Z,19.85
2022-11-24T02:13:41.370Z,18.27
2022-11-24T02:18:41.308Z,20.13
2022-11-24T02:23:41.522Z,21.55
2022-11-24T02:28:41.390Z,20.98
2022-11-24T02:33:39.716Z,20.90
2022-11-24T02:38:38.099Z,19.08
2022-11-24T02:43:38.038Z,20.92
2022-11-24T02:48:37.664Z,20.85
2022-11-24T02:53:36.024Z,22.77
2022-11-24T02:58:34.276Z,21.90
2022-11-24T03:03:32.662Z,52.63
2022-11-24T03:08:32.255Z,26.17
2022-11-24T03:13:30.428Z,23.52
2022-11-24T03:18:28.584Z,26.45
2022-11-24T03:23:27.289Z,21.98
2022-11-24T03:28:26.916Z,19.80
2022-11-24T03:33:25.144Z,18.75
2022-11-24T03:38:23.499Z,20.05
2022-11-24T03:43:21.699Z,20.38
2022-11-24T03:48:21.438Z,18.63
2022-11-24T03:53:20.018Z,22.02
2022-11-24T03:58:18.300Z,26.65
2022-11-24T04:03:16.522Z,25.10
2022-11-24T04:08:16.098Z,25.52
2022-11-24T04:13:15.555Z,25.05
2022-11-24T04:18:14.071Z,32.38
2022-11-24T04:23:12.587Z,25.10
2022-11-24T04:28:12.254Z,23.63
2022-11-24T04:33:10.490Z,34.15
2022-11-24T04:38:08.725Z,22.60
2022-11-24T04:43:07.025Z,26.08
2022-11-24T04:48:06.938Z,23.98
2022-11-24T04:53:05.198Z,20.85
2022-11-24T04:58:03.532Z,21.92
2022-11-24T05:03:01.795Z,23.20
2022-11-24T05:08:01.535Z,36.00
2022-11-24T05:13:00.241Z,29.80
2022-11-24T05:17:58.569Z,21.38
2022-11-24T05:22:56.833Z,20.38
2022-11-24T05:27:56.412Z,21.88
2022-11-24T05:32:54.785Z,24.73
2022-11-24T05:37:53.051Z,24.25
2022-11-24T05:42:51.220Z,17.85
2022-11-24T05:47:51.115Z,16.17
2022-11-24T05:52:49.306Z,13.30
2022-11-24T05:57:47.503Z,12.02
2022-11-24T06:02:45.884Z,14.48
2022-11-24T06:07:45.648Z,16.67
2022-11-24T06:12:43.944Z,12.18
2022-11-24T06:17:42.187Z,17.55
2022-11-24T06:22:40.434Z,16.15
2022-11-24T06:27:39.938Z,16.15
2022-11-24T06:32:39.207Z,21.13
2022-11-24T06:37:37.707Z,17.67
2022-11-24T06:42:35.954Z,15.77
2022-11-24T06:47:35.809Z,12.38
2022-11-24T06:52:33.952Z,12.65
2022-11-24T06:57:32.608Z,13.05
2022-11-24T07:02:30.876Z,15.25
2022-11-24T07:07:30.519Z,16.45
2022-11-24T07:12:29.330Z,16.08
2022-11-24T07:17:27.564Z,15.70
2022-11-24T07:22:25.790Z,13.45
2022-11-24T07:27:25.422Z,17.63
2022-11-24T07:32:23.714Z,13.85
2022-11-24T07:37:24.524Z,16.63
2022-11-24T07:42:28.618Z,17.90
2022-11-24T07:47:26.887Z,18.98
2022-11-24T07:52:26.812Z,17.67
2022-11-24T07:57:25.050Z,18.55
2022-11-24T08:02:25.228Z,17.02
2022-11-24T08:07:23.470Z,18.17
2022-11-24T08:12:22.638Z,17.40
2022-11-24T08:17:20.938Z,15.52
2022-11-24T08:22:20.511Z,28.98
2022-11-24T08:27:19.294Z,10.25
2022-11-24T08:32:22.036Z,18.42
2022-11-24T08:37:21.954Z,13.55
2022-11-24T08:42:20.205Z,11.68
2022-11-24T08:47:18.464Z,15.23
2022-11-24T08:52:17.235Z,22.80
2022-11-24T08:57:21.665Z,16.52
2022-11-24T09:02:20.249Z,16.52
2022-11-24T09:07:18.513Z,14.05
2022-11-24T09:12:18.191Z,18.80
2022-11-24T09:17:16.414Z,15.77
2022-11-24T09:22:14.711Z,14.25
2022-11-24T09:27:12.968Z,14.05
2022-11-24T09:32:12.578Z,14.68
2022-11-24T09:37:10.872Z,15.77
2022-11-24T09:42:13.794Z,15.15
2022-11-24T09:47:17.461Z,17.30
2022-11-24T09:52:17.397Z,18.08
2022-11-24T09:57:16.080Z,20.75
2022-11-24T10:02:15.649Z,19.65
2022-11-24T10:07:19.546Z,29.25
2022-11-24T10:12:23.397Z,17.40
2022-11-24T10:17:29.421Z,16.30
2022-11-24T10:22:36.616Z,19.65
2022-11-24T10:27:35.814Z,19.02
2022-11-24T10:32:39.038Z,17.35
2022-11-24T10:37:41.851Z,18.38
2022-11-24T10:42:40.382Z,21.25
2022-11-24T10:47:40.492Z,22.75
2022-11-24T10:52:41.853Z,32.63
2022-11-24T10:57:41.264Z,26.42
2022-11-24T11:02:41.070Z,21.40
2022-11-24T11:07:39.391Z,13.95
2022-11-24T11:12:45.352Z,6.90
2022-11-24T11:17:46.546Z,4.30
2022-11-24T11:22:46.351Z,4.38
2022-11-24T11:27:44.643Z,4.30
2022-11-24T11:38:12.261Z,5.18
2022-11-24T11:43:19.377Z,11.00
2022-11-24T11:48:32.488Z,6.53
2022-11-24T11:53:44.904Z,8.32
2022-11-24T11:59:04.306Z,10.63
2022-11-24T12:04:13.088Z,10.55
2022-11-24T12:09:20.766Z,6.00
2022-11-24T12:14:23.620Z,11.18
2022-11-24T12:19:36.882Z,11.57
2022-11-24T12:24:41.722Z,11.45
2022-11-24T12:29:58.228Z,7.70
2022-11-24T12:35:00.332Z,8.18
2022-11-24T12:40:04.778Z,11.73
2022-11-24T12:45:14.213Z,10.45
2022-11-24T12:50:14.453Z,12.20
2022-11-24T12:55:19.135Z,7.55
2022-11-24T13:00:20.665Z,7.82
2022-11-24T13:05:23.002Z,8.40
2022-11-24T13:21:32.079Z,11.15
2022-11-24T13:26:32.940Z,17.13
2022-11-24T13:31:32.989Z,10.73
2022-11-24T13:36:35.204Z,18.33
2022-11-24T13:41:51.815Z,9.90
2022-11-24T13:47:05.623Z,9.88
2022-11-24T13:52:19.481Z,8.00
2022-11-24T13:57:36.777Z,27.17
2022-11-24T14:02:36.381Z,19.48
2022-11-24T14:07:35.463Z,16.23
2022-11-24T14:12:34.127Z,36.13
2022-11-24T14:17:32.311Z,36.38
2022-11-24T14:22:35.860Z,39.20
2022-11-24T14:27:35.344Z,15.13
2022-11-24T14:32:33.646Z,19.73
2022-11-24T14:37:31.934Z,13.52
2022-11-24T14:42:33.316Z,19.23
2022-11-24T14:47:32.729Z,14.75
2022-11-24T14:52:31.086Z,51.47
2022-11-24T14:57:33.752Z,11.10
2022-11-24T15:02:40.616Z,15.48
2022-11-24T15:07:40.450Z,15.32
2022-11-24T15:12:41.048Z,18.05
2022-11-24T15:17:46.287Z,19.83
2022-11-24T15:22:45.323Z,16.60
2022-11-24T15:27:44.872Z,12.05
2022-11-24T15:32:49.541Z,15.10
2022-11-24T15:37:47.807Z,11.35
2022-11-24T15:42:51.430Z,14.05
2022-11-24T15:47:49.828Z,18.08
2022-11-24T15:52:48.667Z,16.08
2022-11-24T15:57:48.897Z,17.10
2022-11-24T16:02:47.066Z,27.63
2022-11-24T16:07:45.772Z,35.85
2022-11-24T16:12:44.148Z,36.78
2022-11-24T16:17:43.704Z,22.92
2022-11-24T16:22:42.122Z,29.48
2022-11-24T16:27:40.448Z,25.55
2022-11-24T16:32:38.610Z,18.20
2022-11-24T16:37:38.731Z,22.02
2022-11-24T16:42:36.966Z,17.15
2022-11-24T16:47:39.711Z,13.95
2022-11-24T16:52:39.612Z,11.73
2022-11-24T16:57:37.955Z,17.08
2022-11-24T17:02:36.220Z,24.27
2022-11-24T17:07:34.532Z,28.45
2022-11-24T17:12:35.830Z,15.00
2022-11-24T17:17:33.994Z,31.50
2022-11-24T17:22:32.221Z,12.45
2022-11-24T17:27:30.466Z,19.77
2022-11-24T17:32:30.047Z,18.35
2022-11-24T17:37:28.278Z,16.70
2022-11-24T17:42:26.512Z,51.92
2022-11-24T17:47:28.641Z,23.08
2022-11-24T17:52:30.255Z,25.25
2022-11-24T17:57:28.521Z,41.38
2022-11-24T18:02:26.809Z,16.63
2022-11-24T18:07:25.349Z,21.35
2022-11-24T18:12:25.022Z,16.83
2022-11-24T18:17:23.257Z,14.70
2022-11-24T18:22:43.059Z,13.95
2022-11-24T18:27:41.552Z,19.65
2022-11-24T18:32:39.872Z,15.50
2022-11-24T18:37:43.564Z,23.63
2022-11-24T18:42:45.708Z,19.95
2022-11-24T18:47:43.892Z,17.70
2022-11-24T18:52:42.127Z,13.13
2022-11-24T18:57:40.274Z,12.32
2022-11-24T19:02:39.956Z,16.40
2022-11-24T19:07:38.304Z,18.38
2022-11-24T19:12:36.578Z,12.82
2022-11-24T19:17:34.747Z,22.50
2022-11-24T19:22:34.400Z,14.68
2022-11-24T19:27:34.254Z,14.35
2022-11-24T19:32:32.541Z,22.35
2022-11-24T19:37:30.747Z,12.07
2022-11-24T19:42:30.359Z,8.95
2022-11-24T19:47:28.988Z,11.50
2022-11-24T19:52:27.345Z,10.82
2022-11-24T19:57:25.580Z,13.45
2022-11-24T20:02:25.162Z,16.60
2022-11-24T20:07:23.390Z,9.18
2022-11-24T20:12:24.401Z,12.27
2022-11-24T20:17:22.612Z,9.48
2022-11-24T20:22:22.187Z,6.80
2022-11-24T20:27:20.415Z,7.60
2022-11-24T20:32:20.314Z,8.40
2022-11-24T20:37:18.468Z,7.07
2022-11-24T20:42:18.055Z,9.30
2022-11-24T20:47:16.209Z,7.35
2022-11-24T20:52:14.364Z,7.93
2022-11-24T20:57:12.655Z,11.15
2022-11-24T21:02:12.341Z,6.30
2022-11-24T21:07:13.478Z,6.95
2022-11-24T21:12:11.694Z,6.72
2022-11-24T21:17:10.014Z,10.52
2022-11-24T21:22:09.590Z,8.60
2022-11-24T21:27:07.868Z,7.95
2022-11-24T21:32:06.326Z,8.80
2022-11-24T21:37:04.624Z,6.55
2022-11-24T21:42:04.206Z,6.35
2022-11-24T21:47:03.647Z,8.65
2022-11-24T21:52:01.799Z,5.85
2022-11-24T21:56:59.943Z,8.07
2022-11-24T22:01:59.513Z,8.00
2022-11-24T22:06:57.770Z,5.85
2022-11-24T22:11:55.958Z,6.93
2022-11-24T22:16:54.179Z,6.85
2022-11-24T22:21:53.704Z,5.95
2022-11-24T22:26:52.324Z,5.85
2022-11-24T22:31:50.538Z,7.50
2022-11-24T22:36:49.037Z,11.98
2022-11-24T22:41:48.574Z,8.65
2022-11-24T22:46:46.791Z,6.63
2022-11-24T22:51:44.989Z,4.60
2022-11-24T22:56:43.145Z,4.65
2022-11-24T23:01:42.753Z,9.60
2022-11-24T23:06:40.929Z,6.53
2022-11-24T23:11:39.670Z,7.03
2022-11-24T23:16:37.897Z,7.70
2022-11-24T23:21:39.087Z,7.53
2022-11-24T23:26:38.007Z,7.28
2022-11-24T23:31:36.338Z,7.65
2022-11-24T23:36:34.672Z,7.55
2022-11-24T23:41:34.230Z,6.32
2022-11-24T23:46:32.711Z,5.65
2022-11-24T23:51:31.634Z,9.77
2022-11-24T23:56:32.562Z,5.50
